createdAt,value
2023-04-12T00:00:40.129Z,66.39
2023-04-12T00:03:21.494Z,66.90
2023-04-12T00:05:56.093Z,66.76
2023-04-12T00:08:34.020Z,67.28
2023-04-12T00:11:04.348Z,67.37
2023-04-12T00:13:34.152Z,67.40
2023-04-12T00:16:04.583Z,67.54
2023-04-12T00:18:34.576Z,67.77
2023-04-12T00:21:04.626Z,67.71
2023-04-12T00:23:34.384Z,67.75
2023-04-12T00:26:04.784Z,68.07
2023-04-12T00:28:34.608Z,68.15
2023-04-12T00:31:06.522Z,68.25
2023-04-12T00:33:38.434Z,68.46
2023-04-12T00:36:08.404Z,68.13
2023-04-12T00:38:38.404Z,68.08
2023-04-12T00:41:08.517Z,68.43
2023-04-12T00:43:38.480Z,68.54
2023-04-12T00:46:08.065Z,68.71
2023-04-12T00:48:39.106Z,69.14
2023-04-12T00:51:09.758Z,69.35
2023-04-12T00:53:40.359Z,69.44
2023-04-12T00:56:12.337Z,69.53
2023-04-12T00:58:42.281Z,69.15
2023-04-12T01:01:12.338Z,69.00
2023-04-12T01:03:44.953Z,69.07
2023-04-12T01:06:22.389Z,69.11
2023-04-12T01:09:03.149Z,69.25
2023-04-12T01:11:36.610Z,69.27
2023-04-12T01:14:18.701Z,69.60
2023-04-12T01:16:54.084Z,69.62
2023-04-12T01:19:45.692Z,69.94
2023-04-12T01:22:25.127Z,69.86
2023-04-12T01:25:24.764Z,70.05
2023-04-12T01:28:05.693Z,70.31
2023-04-12T01:30:37.163Z,70.08
2023-04-12T01:33:07.822Z,70.22
2023-04-12T01:35:41.401Z,70.12
2023-04-12T01:38:11.369Z,70.36
2023-04-12T01:40:43.254Z,70.53
2023-04-12T01:43:13.750Z,70.22
2023-04-12T01:45:43.614Z,70.42
2023-04-12T01:48:13.690Z,70.05
2023-04-12T01:50:46.800Z,70.58
2023-04-12T01:53:21.964Z,70.62
2023-04-12T01:55:53.114Z,70.37
2023-04-12T01:58:22.731Z,70.45
2023-04-12T02:00:53.365Z,70.52
2023-04-12T02:03:23.969Z,70.82
2023-04-12T02:05:54.044Z,70.81
2023-04-12T02:08:23.927Z,70.82
2023-04-12T02:10:56.446Z,71.05
2023-04-12T02:13:27.241Z,70.89
2023-04-12T02:15:59.695Z,70.85
2023-04-12T02:18:30.771Z,70.79
2023-04-12T02:21:01.170Z,70.72
2023-04-12T02:23:31.135Z,71.02
2023-04-12T02:26:01.607Z,71.15
2023-04-12T02:28:31.826Z,71.41
2023-04-12T02:31:02.053Z,71.77
2023-04-12T02:33:33.763Z,71.64
2023-04-12T02:36:03.895Z,72.01
2023-04-12T02:38:33.761Z,71.74
2023-04-12T02:41:04.449Z,71.50
2023-04-12T02:43:35.396Z,71.82
2023-04-12T02:46:08.013Z,71.88
2023-04-12T02:48:44.447Z,71.82
2023-04-12T02:51:14.251Z,71.93
2023-04-12T02:53:44.260Z,72.00
2023-04-12T02:56:19.641Z,71.75
2023-04-12T02:58:52.087Z,72.02
2023-04-12T03:01:36.356Z,72.00
2023-04-12T03:04:30.864Z,71.99
2023-04-12T03:07:01.777Z,72.13
2023-04-12T03:09:39.109Z,72.14
2023-04-12T03:12:09.368Z,72.19
2023-04-12T03:14:42.378Z,72.54
2023-04-12T03:17:12.784Z,72.68
2023-04-12T03:19:43.573Z,72.74
2023-04-12T03:22:14.909Z,73.04
2023-04-12T03:24:47.522Z,73.14
2023-04-12T03:27:18.653Z,73.15
2023-04-12T03:29:48.298Z,73.32
2023-04-12T03:32:19.445Z,73.26
2023-04-12T03:34:49.181Z,73.43
2023-04-12T03:37:18.958Z,73.27
2023-04-12T03:39:48.952Z,73.19
2023-04-12T03:42:33.051Z,73.15
2023-04-12T03:45:12.759Z,73.49
2023-04-12T03:47:45.209Z,73.17
2023-04-12T03:50:15.527Z,73.35
2023-04-12T03:52:49.397Z,73.61
2023-04-12T03:55:18.947Z,73.59
2023-04-12T03:57:49.278Z,73.65
2023-04-12T04:00:19.195Z,73.87
2023-04-12T04:03:04.396Z,73.78
2023-04-12T04:05:41.735Z,74.08
2023-04-12T04:08:11.791Z,74.25
2023-04-12T04:10:53.403Z,74.36
2023-04-12T04:13:25.680Z,74.24
2023-04-12T04:16:04.815Z,74.31
2023-04-12T04:18:36.390Z,74.21
2023-04-12T04:21:09.409Z,74.53
2023-04-12T04:23:45.886Z,74.95
2023-04-12T04:26:17.519Z,74.99
2023-04-12T04:29:04.174Z,75.23
2023-04-12T04:31:38.587Z,75.40
2023-04-12T04:34:10.523Z,75.82
2023-04-12T04:36:44.506Z,76.00
2023-04-12T04:39:14.858Z,76.56
2023-04-12T04:41:47.118Z,76.39
2023-04-12T04:44:26.289Z,76.43
2023-04-12T04:47:01.281Z,77.24
2023-04-12T04:49:31.093Z,77.54
2023-04-12T04:52:09.030Z,77.73
2023-04-12T04:54:40.522Z,77.71
2023-04-12T04:57:12.063Z,77.67
2023-04-12T04:59:42.731Z,77.75
2023-04-12T05:02:18.457Z,77.89
2023-04-12T05:04:48.100Z,78.26
2023-04-12T05:07:19.012Z,78.14
2023-04-12T05:09:50.624Z,77.91
2023-04-12T05:12:21.271Z,78.18
2023-04-12T05:15:04.813Z,77.84
2023-04-12T05:17:42.284Z,77.97
2023-04-12T05:20:13.704Z,77.82
2023-04-12T05:22:43.538Z,77.94
2023-04-12T05:25:14.274Z,77.95
2023-04-12T05:27:51.375Z,77.82
2023-04-12T05:30:22.072Z,77.78
2023-04-12T05:32:51.876Z,77.72
2023-04-12T05:35:21.898Z,77.80
2023-04-12T05:37:52.795Z,77.77
2023-04-12T05:40:22.825Z,77.65
2023-04-12T05:42:53.199Z,77.61
2023-04-12T05:45:22.882Z,77.80
2023-04-12T05:47:52.717Z,77.94
2023-04-12T05:50:22.398Z,77.93
2023-04-12T05:52:52.438Z,77.88
2023-04-12T05:55:26.307Z,78.10
2023-04-12T05:57:55.814Z,78.53
2023-04-12T06:00:25.333Z,78.61
2023-04-12T06:02:55.442Z,78.71
2023-04-12T06:05:25.295Z,79.36
2023-04-12T06:07:56.060Z,79.78
2023-04-12T06:10:25.495Z,79.76
2023-04-12T06:12:56.033Z,79.53
2023-04-12T06:15:25.704Z,79.66
2023-04-12T06:18:00.107Z,79.78
2023-04-12T06:20:29.571Z,79.51
2023-04-12T06:22:59.218Z,79.51
2023-04-12T06:25:28.849Z,78.71
2023-04-12T06:27:59.852Z,78.35
2023-04-12T06:30:29.681Z,78.60
2023-04-12T06:32:59.674Z,78.16
2023-04-12T06:35:29.346Z,78.20
2023-04-12T06:37:58.065Z,77.80
2023-04-12T06:40:27.601Z,77.90
2023-04-12T06:42:57.360Z,77.51
2023-04-12T06:45:28.730Z,77.09
2023-04-12T06:47:58.131Z,76.96
2023-04-12T06:50:27.813Z,76.29
2023-04-12T06:52:57.159Z,76.13
2023-04-12T06:55:29.490Z,75.83
2023-04-12T06:57:59.115Z,75.38
2023-04-12T07:00:28.923Z,74.95
2023-04-12T07:02:58.469Z,75.44
2023-04-12T07:05:28.125Z,75.46
2023-04-12T07:07:57.866Z,74.92
2023-04-12T07:10:27.371Z,74.36
2023-04-12T07:12:58.620Z,74.66
2023-04-12T07:15:28.148Z,74.58
2023-04-12T07:17:57.613Z,73.72
2023-04-12T07:20:27.700Z,73.53
2023-04-12T07:22:57.244Z,73.43
2023-04-12T07:25:26.629Z,73.06
2023-04-12T07:27:56.293Z,71.92
2023-04-12T07:30:26.648Z,71.33
2023-04-12T07:33:05.228Z,69.48
2023-04-12T07:35:43.350Z,67.69
2023-04-12T07:38:13.065Z,68.58
2023-04-12T07:40:43.526Z,68.13
2023-04-12T07:43:13.001Z,65.27
2023-04-12T07:45:42.285Z,64.09
2023-04-12T07:48:12.657Z,62.26
2023-04-12T07:50:42.049Z,61.79
2023-04-12T07:53:21.822Z,60.74
2023-04-12T07:55:51.753Z,60.00
2023-04-12T07:58:22.603Z,60.02
2023-04-12T08:00:52.622Z,59.44
2023-04-12T08:03:22.557Z,60.72
2023-04-12T08:05:54.155Z,60.75
2023-04-12T08:08:24.256Z,59.46
2023-04-12T08:10:53.734Z,60.50
2023-04-12T08:13:23.550Z,60.48
2023-04-12T08:15:53.045Z,59.74
2023-04-12T08:18:22.823Z,59.58
2023-04-12T08:20:51.592Z,59.84
2023-04-12T08:23:21.798Z,59.12
2023-04-12T08:25:51.917Z,59.63
2023-04-12T08:28:23.157Z,58.73
2023-04-12T08:30:52.812Z,57.85
2023-04-12T08:33:22.687Z,58.26
2023-04-12T08:35:53.333Z,58.30
2023-04-12T08:38:30.651Z,56.08
2023-04-12T08:41:08.300Z,55.50
2023-04-12T08:43:38.504Z,56.08
2023-04-12T08:46:07.978Z,55.35
2023-04-12T08:48:37.956Z,55.76
2023-04-12T08:51:07.635Z,56.08
2023-04-12T08:53:37.433Z,56.11
2023-04-12T08:56:07.944Z,56.45
2023-04-12T08:58:39.914Z,58.76
2023-04-12T09:01:16.282Z,57.96
2023-04-12T09:03:47.254Z,57.40
2023-04-12T09:06:17.334Z,57.53
2023-04-12T09:08:54.449Z,58.39
2023-04-12T09:11:29.392Z,58.66
2023-04-12T09:14:00.387Z,58.83
2023-04-12T09:16:40.612Z,59.16
2023-04-12T09:19:12.359Z,57.26
2023-04-12T09:21:55.415Z,57.26
2023-04-12T09:24:25.311Z,57.68
2023-04-12T09:27:05.318Z,58.22
2023-04-12T09:29:34.766Z,57.64
2023-04-12T09:32:06.270Z,57.03
2023-04-12T09:34:36.688Z,58.62
2023-04-12T09:37:16.555Z,56.12
2023-04-12T09:39:46.095Z,55.91
2023-04-12T09:42:32.380Z,55.05
2023-04-12T09:45:24.445Z,54.26
2023-04-12T09:47:55.326Z,53.04
2023-04-12T09:50:29.073Z,51.73
2023-04-12T09:53:00.826Z,50.35
2023-04-12T09:55:32.691Z,51.60
2023-04-12T09:58:05.260Z,50.50
2023-04-12T10:00:35.164Z,50.26
2023-04-12T10:03:07.827Z,50.21
2023-04-12T10:05:38.975Z,48.83
2023-04-12T10:08:09.071Z,49.36
2023-04-12T10:10:38.347Z,49.35
2023-04-12T10:13:11.329Z,47.61
2023-04-12T10:15:44.001Z,46.90
2023-04-12T10:18:14.500Z,47.41
2023-04-12T10:20:44.111Z,48.37
2023-04-12T10:23:18.904Z,48.83
2023-04-12T10:25:48.855Z,49.80
2023-04-12T10:28:23.376Z,50.83
2023-04-12T10:30:57.010Z,51.72
2023-04-12T10:33:28.582Z,50.61
2023-04-12T10:36:02.071Z,51.05
2023-04-12T10:38:45.310Z,50.26
2023-04-12T10:41:16.712Z,49.88
2023-04-12T10:43:46.853Z,50.97
2023-04-12T10:46:35.409Z,52.00
2023-04-12T10:49:11.959Z,52.64
2023-04-12T10:52:04.497Z,52.80
2023-04-12T10:54:37.077Z,53.24
2023-04-12T10:57:08.603Z,52.12
2023-04-12T10:59:53.160Z,52.93
2023-04-12T11:02:23.264Z,52.36
2023-04-12T11:05:11.179Z,52.59
2023-04-12T11:08:08.657Z,52.31
2023-04-12T11:11:23.096Z,52.33
2023-04-12T11:13:55.361Z,52.74
2023-04-12T11:16:24.871Z,53.91
2023-04-12T11:18:54.614Z,53.68
2023-04-12T11:21:26.663Z,53.21
2023-04-12T11:23:56.904Z,54.41
2023-04-12T11:26:31.344Z,54.23
2023-04-12T11:29:07.828Z,54.40
2023-04-12T11:31:38.734Z,55.46
2023-04-12T11:34:08.681Z,54.13
2023-04-12T11:36:39.544Z,53.42
2023-04-12T11:39:08.691Z,53.39
2023-04-12T11:41:48.647Z,54.17
2023-04-12T11:44:22.241Z,53.62
2023-04-12T11:46:52.684Z,54.39
2023-04-12T11:49:23.606Z,53.47
2023-04-12T11:52:01.842Z,53.80
2023-04-12T11:54:31.394Z,54.31
2023-04-12T11:57:03.451Z,54.57
2023-04-12T11:59:35.103Z,54.85
2023-04-12T12:02:20.898Z,55.08
2023-04-12T12:04:53.345Z,55.86
2023-04-12T12:07:24.091Z,56.09
2023-04-12T12:09:53.783Z,56.84
2023-04-12T12:12:24.138Z,56.88
2023-04-12T12:14:53.530Z,57.11
2023-04-12T12:17:23.090Z,57.90
2023-04-12T12:19:52.544Z,58.42
2023-04-12T12:22:26.178Z,58.47
2023-04-12T12:24:57.546Z,58.64
2023-04-12T12:27:38.138Z,58.51
2023-04-12T12:30:08.549Z,58.63
2023-04-12T12:32:40.513Z,58.85
2023-04-12T12:35:11.100Z,58.46
2023-04-12T12:37:57.765Z,59.07
2023-04-12T12:40:33.053Z,59.37
2023-04-12T12:43:02.698Z,59.82
2023-04-12T12:45:33.455Z,60.00
2023-04-12T12:48:04.316Z,60.43
2023-04-12T12:50:35.874Z,60.88
2023-04-12T12:53:09.088Z,61.03
2023-04-12T12:55:39.810Z,61.04
2023-04-12T12:58:11.934Z,61.22
2023-04-12T13:00:41.851Z,61.33
2023-04-12T13:03:14.063Z,60.87
2023-04-12T13:05:43.998Z,60.63
2023-04-12T13:08:14.024Z,60.70
2023-04-12T13:10:43.114Z,61.20
2023-04-12T13:13:12.220Z,61.25
2023-04-12T13:15:41.097Z,60.92
2023-04-12T13:18:12.296Z,61.36
2023-04-12T13:20:42.377Z,61.78
2023-04-12T13:23:11.294Z,61.61
2023-04-12T13:25:42.234Z,61.70
2023-04-12T13:28:12.945Z,61.86
2023-04-12T13:30:44.878Z,62.27
2023-04-12T13:33:18.325Z,62.46
2023-04-12T13:35:50.436Z,62.66
2023-04-12T13:38:20.119Z,62.50
2023-04-12T13:40:49.632Z,62.82
2023-04-12T13:43:19.000Z,63.12
2023-04-12T13:45:48.851Z,63.22
2023-04-12T13:48:20.308Z,62.94
2023-04-12T13:50:51.056Z,62.92
2023-04-12T13:53:22.040Z,63.07
2023-04-12T13:55:51.887Z,62.85
2023-04-12T13:58:21.603Z,62.77
2023-04-12T14:00:54.545Z,63.08
2023-04-12T14:03:24.237Z,62.77
2023-04-12T14:05:53.717Z,62.54
2023-04-12T14:08:24.399Z,61.88
2023-04-12T14:10:55.193Z,62.00
2023-04-12T14:13:25.536Z,62.03
2023-04-12T14:15:56.434Z,62.09
2023-04-12T14:18:25.984Z,62.12
2023-04-12T14:20:58.121Z,62.22
2023-04-12T14:23:28.199Z,61.90
2023-04-12T14:25:58.052Z,62.16
2023-04-12T14:28:31.375Z,62.20
2023-04-12T14:31:04.970Z,61.88
2023-04-12T14:33:36.141Z,62.03
2023-04-12T14:36:05.936Z,62.10
2023-04-12T14:38:35.469Z,62.03
2023-04-12T14:41:09.547Z,62.35
2023-04-12T14:43:39.739Z,62.30
2023-04-12T14:46:09.270Z,62.59
2023-04-12T14:48:38.702Z,62.30
2023-04-12T14:51:08.477Z,61.89
2023-04-12T14:53:38.634Z,61.68
2023-04-12T14:56:17.453Z,61.50
2023-04-12T14:58:47.229Z,61.67
2023-04-12T15:01:18.731Z,62.02
2023-04-12T15:03:48.547Z,62.56
2023-04-12T15:06:18.700Z,62.99
2023-04-12T15:08:50.062Z,63.38
2023-04-12T15:11:19.544Z,62.80
2023-04-12T15:13:50.298Z,63.16
2023-04-12T15:16:19.821Z,63.31
2023-04-12T15:18:50.564Z,63.15
2023-04-12T15:21:20.450Z,63.45
2023-04-12T15:23:50.378Z,63.73
2023-04-12T15:26:19.543Z,63.53
2023-04-12T15:28:49.721Z,63.40
2023-04-12T15:31:19.456Z,63.31
2023-04-12T15:33:50.063Z,63.35
2023-04-12T15:36:20.812Z,63.56
2023-04-12T15:38:50.740Z,63.94
2023-04-12T15:41:20.114Z,63.35
2023-04-12T15:43:49.818Z,63.32
2023-04-12T15:46:19.637Z,63.75
2023-04-12T15:48:49.196Z,63.83
2023-04-12T15:51:18.977Z,63.82
2023-04-12T15:53:48.857Z,63.99
2023-04-12T15:56:24.802Z,63.82
2023-04-12T15:58:56.301Z,64.17
2023-04-12T16:01:28.740Z,63.96
2023-04-12T16:04:00.454Z,64.23
2023-04-12T16:06:35.016Z,64.15
2023-04-12T16:09:08.697Z,64.15
2023-04-12T16:11:38.552Z,64.02
2023-04-12T16:14:09.054Z,64.21
2023-04-12T16:16:40.683Z,64.29
2023-04-12T16:19:10.232Z,63.86
2023-04-12T16:21:43.320Z,64.42
2023-04-12T16:24:14.867Z,63.78
2023-04-12T16:26:44.254Z,64.27
2023-04-12T16:29:14.075Z,63.97
2023-04-12T16:31:43.858Z,64.47
2023-04-12T16:34:13.721Z,64.35
2023-04-12T16:36:43.991Z,64.43
2023-04-12T16:39:14.103Z,64.17
2023-04-12T16:41:47.458Z,64.41
2023-04-12T16:44:20.626Z,63.86
2023-04-12T16:46:50.581Z,64.34
2023-04-12T16:49:20.631Z,64.72
2023-04-12T16:51:50.836Z,64.71
2023-04-12T16:54:20.441Z,64.68
2023-04-12T16:56:50.491Z,64.82
2023-04-12T16:59:19.893Z,64.85
2023-04-12T17:01:49.901Z,64.87
2023-04-12T17:04:20.131Z,65.13
2023-04-12T17:06:50.273Z,64.83
2023-04-12T17:09:20.236Z,65.05
2023-04-12T17:11:49.975Z,65.51
2023-04-12T17:14:20.156Z,64.90
2023-04-12T17:16:52.194Z,65.07
2023-04-12T17:19:22.122Z,64.94
2023-04-12T17:21:51.961Z,65.51
2023-04-12T17:24:23.081Z,65.39
2023-04-12T17:26:53.955Z,65.38
2023-04-12T17:29:23.535Z,65.57
2023-04-12T17:31:54.342Z,65.75
2023-04-12T17:34:25.784Z,65.95
2023-04-12T17:36:55.735Z,66.15
2023-04-12T17:39:25.657Z,65.99
2023-04-12T17:41:56.440Z,66.04
2023-04-12T17:44:25.966Z,66.43
2023-04-12T17:46:57.232Z,66.13
2023-04-12T17:49:25.989Z,65.97
2023-04-12T17:51:55.764Z,66.04
2023-04-12T17:54:25.230Z,66.22
2023-04-12T17:56:55.041Z,65.97
2023-04-12T17:59:24.849Z,66.53
2023-04-12T18:01:53.953Z,65.95
2023-04-12T18:04:23.788Z,65.89
2023-04-12T18:06:54.517Z,66.23
2023-04-12T18:09:24.679Z,66.17
2023-04-12T18:11:54.448Z,66.27
2023-04-12T18:14:24.201Z,66.24
2023-04-12T18:16:53.094Z,66.15
2023-04-12T18:19:23.560Z,66.21
2023-04-12T18:21:52.490Z,66.34
2023-04-12T18:24:22.134Z,66.37
2023-04-12T18:26:51.589Z,66.04
2023-04-12T18:29:20.451Z,65.87
2023-04-12T18:31:50.398Z,66.08
2023-04-12T18:34:20.435Z,65.75
2023-04-12T18:36:50.126Z,65.94
2023-04-12T18:39:21.008Z,66.31
2023-04-12T18:41:50.424Z,66.29
2023-04-12T18:44:20.740Z,66.23
2023-04-12T18:46:50.265Z,65.93
2023-04-12T18:49:19.661Z,65.91
2023-04-12T18:51:50.060Z,66.00
2023-04-12T18:54:20.329Z,65.91
2023-04-12T18:56:50.082Z,65.93
2023-04-12T18:59:19.469Z,65.81
2023-04-12T19:01:48.976Z,65.92
2023-04-12T19:04:18.565Z,65.97
2023-04-12T19:06:48.351Z,65.61
2023-04-12T19:09:18.229Z,65.64
2023-04-12T19:11:47.703Z,65.83
2023-04-12T19:14:17.136Z,65.69
2023-04-12T19:16:48.696Z,65.79
2023-04-12T19:19:18.412Z,65.68
2023-04-12T19:21:48.370Z,66.01
2023-04-12T19:24:18.155Z,65.89
2023-04-12T19:26:47.574Z,65.75
2023-04-12T19:29:17.105Z,65.68
2023-04-12T19:31:54.005Z,65.87
2023-04-12T19:34:23.783Z,65.36
2023-04-12T19:36:53.980Z,65.61
2023-04-12T19:39:24.476Z,65.45
2023-04-12T19:41:53.383Z,65.49
2023-04-12T19:44:23.717Z,65.23
2023-04-12T19:46:53.708Z,65.24
2023-04-12T19:49:24.248Z,65.26
2023-04-12T19:51:53.676Z,65.35
2023-04-12T19:54:24.213Z,64.92
2023-04-12T19:56:54.154Z,65.11
2023-04-12T19:59:25.662Z,65.33
2023-04-12T20:01:56.595Z,64.94
2023-04-12T20:04:26.965Z,65.17
2023-04-12T20:06:56.436Z,64.68
2023-04-12T20:09:26.624Z,64.81
2023-04-12T20:11:57.070Z,64.48
2023-04-12T20:14:27.213Z,64.86
2023-04-12T20:16:57.422Z,64.36
2023-04-12T20:19:27.575Z,64.61
2023-04-12T20:22:02.625Z,64.37
2023-04-12T20:24:34.784Z,64.38
2023-04-12T20:27:04.346Z,64.44
2023-04-12T20:29:35.037Z,64.67
2023-04-12T20:32:07.980Z,64.28
2023-04-12T20:34:37.409Z,64.50
2023-04-12T20:37:07.116Z,64.68
2023-04-12T20:39:36.484Z,64.40
2023-04-12T20:42:07.156Z,64.74
2023-04-12T20:44:37.831Z,64.72
2023-04-12T20:47:07.954Z,64.61
2023-04-12T20:49:37.547Z,64.60
2023-04-12T20:52:06.176Z,64.94
2023-04-12T20:54:36.044Z,64.41
2023-04-12T20:57:04.943Z,65.02
2023-04-12T20:59:36.441Z,66.02
2023-04-12T21:02:05.202Z,65.47
2023-04-12T21:04:36.779Z,65.58
2023-04-12T21:07:06.614Z,65.79
2023-04-12T21:09:35.918Z,65.31
2023-04-12T21:12:09.098Z,65.28
2023-04-12T21:14:40.730Z,65.40
2023-04-12T21:17:13.627Z,65.14
2023-04-12T21:19:45.304Z,64.71
2023-04-12T21:22:15.063Z,64.70
2023-04-12T21:24:45.038Z,64.47
2023-04-12T21:27:14.935Z,64.38
2023-04-12T21:29:45.280Z,64.38
2023-04-12T21:32:15.006Z,64.45
2023-04-12T21:34:45.919Z,64.28
2023-04-12T21:37:15.691Z,63.97
2023-04-12T21:39:44.325Z,64.76
2023-04-12T21:42:13.708Z,64.85
2023-04-12T21:44:43.356Z,65.16
2023-04-12T21:47:13.429Z,65.34
2023-04-12T21:49:42.800Z,65.27
2023-04-12T21:52:12.213Z,65.63
2023-04-12T21:54:41.786Z,65.75
2023-04-12T21:57:11.768Z,65.81
2023-04-12T21:59:43.051Z,65.38
2023-04-12T22:02:13.313Z,65.77
2023-04-12T22:04:44.076Z,66.03
2023-04-12T22:07:14.528Z,66.01
2023-04-12T22:09:44.615Z,65.83
2023-04-12T22:12:14.511Z,65.97
2023-04-12T22:14:47.578Z,65.99
2023-04-12T22:17:19.715Z,66.26
2023-04-12T22:19:49.704Z,66.20
2023-04-12T22:22:19.896Z,66.49
2023-04-12T22:24:49.323Z,66.73
2023-04-12T22:27:19.264Z,66.69
2023-04-12T22:29:50.392Z,65.62
2023-04-12T22:32:19.838Z,65.75
2023-04-12T22:35:01.144Z,66.11
2023-04-12T22:37:42.446Z,66.23
2023-04-12T22:40:13.959Z,66.44
2023-04-12T22:42:47.690Z,66.41
2023-04-12T22:45:18.172Z,66.39
2023-04-12T22:47:48.148Z,66.47
2023-04-12T22:50:17.618Z,66.71
2023-04-12T22:52:50.167Z,66.87
2023-04-12T22:55:22.718Z,67.19
2023-04-12T22:57:53.550Z,67.06
2023-04-12T23:00:22.853Z,67.30
2023-04-12T23:02:54.241Z,67.62
2023-04-12T23:05:22.967Z,67.80
2023-04-12T23:07:52.670Z,68.11
2023-04-12T23:10:21.348Z,68.24
2023-04-12T23:12:54.204Z,68.35
2023-04-12T23:15:25.349Z,67.67
2023-04-12T23:17:55.042Z,67.64
2023-04-12T23:20:25.563Z,67.56
2023-04-12T23:22:57.226Z,67.87
2023-04-12T23:25:43.395Z,68.07
2023-04-12T23:28:14.324Z,68.54
2023-04-12T23:30:51.198Z,68.97
2023-04-12T23:33:21.842Z,69.00
2023-04-12T23:35:56.691Z,69.13
2023-04-12T23:38:32.878Z,69.16
2023-04-12T23:41:04.518Z,69.13
2023-04-12T23:43:35.979Z,68.69
2023-04-12T23:46:06.062Z,69.29
2023-04-12T23:48:35.570Z,69.59
2023-04-12T23:51:05.177Z,69.63
2023-04-12T23:53:34.527Z,70.02
2023-04-12T23:56:04.153Z,70.13
2023-04-12T23:58:32.832Z,70.65
